Time;durP1;ratioP1;P1;durP2;ratioP2;P2;SDS_P1;SDS_P2;PMS_P1;PMS_P2;Temp;Humidity;BMP_temperature;BMP_pressure;BME280_temperature;BME280_humidity;BME280_pressure;Samples;Min_cycle;Max_cycle;Signal;HPM_P1;HPM_P2
2022/09/06 00:00:15;;;;;;;8.00;6.13;;;23.50;84.80;;;;;;5095698;28;20560;-69
2022/09/06 00:02:42;;;;;;;6.27;5.70;;;23.50;85.20;;;;;;5094819;28;20209;-69
2022/09/06 00:05:11;;;;;;;6.63;5.83;;;23.50;85.30;;;;;;5099843;28;20528;-70
2022/09/06 00:07:38;;;;;;;7.10;6.30;;;23.40;85.30;;;;;;5099262;28;20213;-70
2022/09/06 00:10:07;;;;;;;6.90;6.20;;;23.40;85.40;;;;;;5092117;28;20212;-69
2022/09/06 00:12:34;;;;;;;7.20;6.03;;;23.30;85.60;;;;;;5099627;28;20201;-69
2022/09/06 00:15:01;;;;;;;7.07;6.43;;;23.30;85.60;;;;;;5096986;28;20201;-69
2022/09/06 00:17:29;;;;;;;7.60;6.77;;;23.30;85.70;;;;;;5098199;28;20233;-69
2022/09/06 00:19:56;;;;;;;6.50;5.90;;;23.30;85.70;;;;;;5112594;27;20241;-69
2022/09/06 00:22:23;;;;;;;7.73;6.97;;;23.30;85.90;;;;;;5114176;27;20213;-69
2022/09/06 00:24:50;;;;;;;9.90;6.40;;;23.30;85.90;;;;;;5117868;27;20194;-70
2022/09/06 00:27:17;;;;;;;8.83;7.00;;;23.20;86.00;;;;;;5096767;28;20639;-70
2022/09/06 00:29:45;;;;;;;10.33;6.70;;;23.20;86.20;;;;;;5097361;27;20238;-69
2022/09/06 00:32:11;;;;;;;7.10;6.40;;;23.20;86.30;;;;;;5103253;27;20244;-70
2022/09/06 00:34:39;;;;;;;6.87;5.50;;;23.20;86.30;;;;;;5113376;27;20200;-69
2022/09/06 00:37:06;;;;;;;8.40;5.67;;;23.10;86.20;;;;;;5118058;27;20216;-70
2022/09/06 00:39:34;;;;;;;8.97;6.10;;;23.10;86.20;;;;;;5115792;27;20197;-69
2022/09/06 00:42:01;;;;;;;6.30;5.73;;;23.10;86.30;;;;;;5116469;27;20710;-70
2022/09/06 00:44:28;;;;;;;8.67;6.17;;;23.10;86.20;;;;;;5112079;27;20601;-69
2022/09/06 00:46:55;;;;;;;6.67;6.00;;;23.10;86.20;;;;;;5098529;28;20284;-68
2022/09/06 00:49:28;;;;;;;9.90;6.90;;;23.10;86.30;;;;;;5107053;27;20729;-68
2022/09/06 00:51:59;;;;;;;6.57;5.93;;;23.10;86.50;;;;;;5096070;27;20200;-68
2022/09/06 00:54:27;;;;;;;6.33;5.80;;;23.00;86.60;;;;;;5116631;27;20201;-68
2022/09/06 00:56:56;;;;;;;6.40;5.80;;;23.00;86.60;;;;;;5105157;28;20219;-67
2022/09/06 00:59:25;;;;;;;8.93;5.73;;;23.00;86.70;;;;;;5118400;27;20230;-68
2022/09/06 01:01:52;;;;;;;5.67;5.07;;;23.00;86.80;;;;;;5111285;27;20295;-68
2022/09/06 01:04:20;;;;;;;5.47;4.97;;;23.00;86.80;;;;;;5100573;28;20541;-67
2022/09/06 01:07:06;;;;;;;6.93;4.73;;;23.00;86.80;;;;;;5115581;28;20211;-68
2022/09/06 01:09:48;;;;;;;10.20;5.03;;;23.00;86.50;;;;;;5119751;27;20192;-68
2022/09/06 01:12:27;;;;;;;8.30;4.57;;;23.00;86.30;;;;;;5095577;28;20772;-68
2022/09/06 01:15:04;;;;;;;9.63;5.20;;;23.10;86.00;;;;;;5094791;28;20193;-67
2022/09/06 01:17:54;;;;;;;6.03;4.90;;;23.10;85.70;;;;;;5109095;27;20224;-68
2022/09/06 01:20:51;;;;;;;5.43;4.70;;;23.10;85.70;;;;;;5118001;28;20246;-68
2022/09/06 01:24:05;;;;;;;5.97;4.33;;;23.10;85.60;;;;;;5078087;28;20602;-68
2022/09/06 01:26:51;;;;;;;7.57;5.30;;;23.00;85.40;;;;;;5021019;28;20222;-68
2022/09/06 01:29:54;;;;;;;5.23;4.73;;;23.00;85.30;;;;;;5094237;28;20211;-68
2022/09/06 01:32:35;;;;;;;6.80;4.53;;;22.90;85.30;;;;;;5111798;28;20219;-68
2022/09/06 01:35:32;;;;;;;6.23;5.00;;;23.00;85.30;;;;;;5117134;28;20203;-68
2022/09/06 01:37:59;;;;;;;7.87;4.10;;;23.00;85.30;;;;;;5113805;28;20192;-69
2022/09/06 01:40:27;;;;;;;4.50;4.10;;;22.90;85.00;;;;;;5116383;28;20193;-69
2022/09/06 01:42:55;;;;;;;4.97;4.57;;;22.90;84.80;;;;;;5114926;28;20588;-69
2022/09/06 01:45:36;;;;;;;9.30;4.83;;;22.90;84.80;;;;;;5100482;28;20278;-69
2022/09/06 01:48:35;;;;;;;4.77;4.07;;;22.90;84.90;;;;;;5112232;28;20518;-69
2022/09/06 01:51:08;;;;;;;5.67;3.77;;;22.80;84.90;;;;;;5075800;28;20642;-69
2022/09/06 01:54:02;;;;;;;5.20;4.70;;;22.80;85.00;;;;;;5119066;28;20488;-69
2022/09/06 01:56:40;;;;;;;4.73;4.33;;;22.80;85.20;;;;;;5104892;28;20249;-69
2022/09/06 01:59:25;;;;;;;4.80;4.27;;;22.80;85.20;;;;;;5112671;28;20216;-69
2022/09/06 02:02:10;;;;;;;5.80;4.20;;;22.80;85.20;;;;;;5118076;28;20253;-69
2022/09/06 02:05:10;;;;;;;5.13;4.20;;;22.70;85.20;;;;;;5115280;28;20197;-69
2022/09/06 02:07:38;;;;;;;7.40;4.53;;;22.70;85.60;;;;;;5099921;28;20544;-69
2022/09/06 02:10:08;;;;;;;7.30;4.03;;;22.70;85.50;;;;;;5117553;28;20528;-70
2022/09/06 02:12:39;;;;;;;5.23;4.20;;;22.70;85.50;;;;;;5092552;28;20205;-70
2022/09/06 02:15:17;;;;;;;7.03;4.30;;;22.70;85.50;;;;;;5108453;28;20569;-70
2022/09/06 02:18:15;;;;;;;10.30;4.63;;;22.60;85.30;;;;;;5111374;28;20204;-69
2022/09/06 02:20:49;;;;;;;5.10;4.27;;;22.60;85.40;;;;;;5109912;28;20597;-69
2022/09/06 02:23:19;;;;;;;7.30;4.10;;;22.60;85.30;;;;;;5115295;28;20637;-69
2022/09/06 02:25:52;;;;;;;5.03;4.53;;;22.60;85.30;;;;;;5090729;27;20202;-70
2022/09/06 02:28:20;;;;;;;4.83;4.20;;;22.60;85.30;;;;;;5120412;27;20276;-69
2022/09/06 02:30:58;;;;;;;6.97;4.60;;;22.60;85.50;;;;;;5121087;27;20218;-69
2022/09/06 02:33:29;;;;;;;5.83;5.27;;;22.60;85.60;;;;;;5120468;27;20237;-70
2022/09/06 02:36:06;;;;;;;5.03;4.63;;;22.60;85.50;;;;;;5122703;27;20639;-70
2022/09/06 02:38:36;;;;;;;6.87;3.90;;;22.60;85.50;;;;;;5126542;27;20296;-69
2022/09/06 02:41:05;;;;;;;4.73;4.00;;;22.60;85.60;;;;;;5119478;27;20502;-70
2022/09/06 02:43:32;;;;;;;8.17;5.37;;;22.60;85.60;;;;;;5104647;27;20295;-70
2022/09/06 02:45:59;;;;;;;7.63;4.13;;;22.60;85.30;;;;;;5123205;27;20196;-69
2022/09/06 02:48:26;;;;;;;5.10;4.40;;;22.50;85.10;;;;;;5117454;27;20503;-70
2022/09/06 02:50:54;;;;;;;5.47;4.17;;;22.50;85.30;;;;;;5117953;27;20204;-69
2022/09/06 02:53:21;;;;;;;8.80;4.40;;;22.40;85.50;;;;;;5113945;27;20211;-69
2022/09/06 02:55:48;;;;;;;4.83;4.40;;;22.40;85.70;;;;;;5101616;28;20193;-69
2022/09/06 02:58:15;;;;;;;5.73;4.17;;;22.40;85.90;;;;;;5118987;27;20504;-70
2022/09/06 03:00:42;;;;;;;4.90;4.50;;;22.40;86.00;;;;;;5119547;27;20820;-69
2022/09/06 03:03:09;;;;;;;18.70;5.03;;;22.40;86.10;;;;;;5098776;27;20220;-69
2022/09/06 03:05:37;;;;;;;6.20;4.77;;;22.30;86.30;;;;;;5117252;27;20196;-70
2022/09/06 03:08:04;;;;;;;5.30;4.60;;;22.30;86.30;;;;;;5120617;27;20200;-70
2022/09/06 03:10:31;;;;;;;6.33;4.50;;;22.20;86.50;;;;;;5099205;28;20197;-70
2022/09/06 03:12:58;;;;;;;5.77;5.17;;;22.20;86.70;;;;;;5119003;27;20529;-70
2022/09/06 03:15:26;;;;;;;7.20;4.47;;;22.20;87.10;;;;;;5118556;27;20196;-70
2022/09/06 03:17:57;;;;;;;5.13;4.60;;;22.10;87.20;;;;;;5120385;27;20578;-70
2022/09/06 03:20:25;;;;;;;7.63;4.93;;;22.10;87.40;;;;;;5114027;27;20251;-71
2022/09/06 03:22:52;;;;;;;4.97;4.50;;;22.10;87.50;;;;;;5107162;28;20192;-70
2022/09/06 03:25:19;;;;;;;11.57;5.33;;;22.10;87.30;;;;;;5118384;27;20207;-70
2022/09/06 03:27:46;;;;;;;7.80;5.27;;;22.10;87.20;;;;;;5122456;27;20622;-70
2022/09/06 03:30:13;;;;;;;5.87;5.27;;;22.00;87.20;;;;;;5113116;27;20207;-70
2022/09/06 03:32:40;;;;;;;5.10;4.60;;;22.00;87.40;;;;;;5118632;27;20208;-70
2022/09/06 03:35:08;;;;;;;6.30;5.30;;;22.00;87.60;;;;;;5117951;27;20199;-70
2022/09/06 03:37:35;;;;;;;7.37;5.13;;;22.00;87.70;;;;;;5088675;27;20288;-69
2022/09/06 03:40:03;;;;;;;9.07;4.93;;;22.00;87.80;;;;;;5120511;27;20196;-69
2022/09/06 03:42:31;;;;;;;7.40;4.93;;;22.00;87.80;;;;;;5102683;27;20201;-70
2022/09/06 03:44:58;;;;;;;7.33;5.17;;;22.00;87.90;;;;;;5108484;27;20193;-70
2022/09/06 03:47:25;;;;;;;11.63;5.10;;;21.90;88.00;;;;;;5099110;28;20200;-70
2022/09/06 03:49:52;;;;;;;5.53;4.97;;;21.90;88.00;;;;;;5117095;27;20200;-70
2022/09/06 03:52:19;;;;;;;7.93;4.43;;;21.90;88.00;;;;;;5119804;27;20212;-70
2022/09/06 03:54:46;;;;;;;5.27;4.77;;;21.90;88.10;;;;;;5123951;27;20199;-70
2022/09/06 03:57:13;;;;;;;5.57;4.57;;;21.90;88.10;;;;;;5118001;27;20245;-70
2022/09/06 03:59:40;;;;;;;7.03;5.17;;;21.90;88.10;;;;;;5118408;27;20204;-69
2022/09/06 04:02:07;;;;;;;4.67;4.27;;;21.90;87.80;;;;;;5116490;27;20204;-70
2022/09/06 04:04:34;;;;;;;5.40;4.87;;;21.80;87.80;;;;;;5090004;28;20199;-71
2022/09/06 04:07:01;;;;;;;8.07;5.10;;;21.80;87.80;;;;;;5101777;28;20204;-70
2022/09/06 04:09:28;;;;;;;4.90;4.13;;;21.80;87.90;;;;;;5098438;28;20208;-70
2022/09/06 04:11:55;;;;;;;6.23;5.17;;;21.80;87.90;;;;;;5093061;27;20208;-70
2022/09/06 04:14:22;;;;;;;6.67;6.07;;;21.80;87.80;;;;;;5099512;27;20677;-70
2022/09/06 04:16:49;;;;;;;5.23;4.70;;;21.80;87.60;;;;;;5101663;28;20221;-70
2022/09/06 04:19:17;;;;;;;7.43;5.17;;;21.80;87.60;;;;;;5073985;28;20225;-70
2022/09/06 04:21:44;;;;;;;11.80;5.23;;;21.80;87.60;;;;;;5100148;28;20566;-70
2022/09/06 04:24:11;;;;;;;7.67;5.63;;;21.80;87.60;;;;;;5097759;28;20189;-70
2022/09/06 04:26:38;;;;;;;5.83;5.33;;;21.80;87.50;;;;;;5095334;28;20205;-69
2022/09/06 04:29:05;;;;;;;8.57;5.37;;;21.80;87.50;;;;;;5095156;28;20654;-69
2022/09/06 04:31:32;;;;;;;7.20;5.50;;;21.80;87.60;;;;;;5095689;28;20204;-70
2022/09/06 04:33:59;;;;;;;6.43;5.90;;;21.80;87.60;;;;;;5098584;28;20254;-70
2022/09/06 04:36:26;;;;;;;7.17;5.93;;;21.80;88.30;;;;;;5095088;28;20661;-70
2022/09/06 04:38:54;;;;;;;8.43;6.17;;;21.70;87.70;;;;;;5099197;28;20204;-70
2022/09/06 04:41:21;;;;;;;7.77;5.80;;;21.70;87.70;;;;;;5100133;28;20208;-70
2022/09/06 04:43:48;;;;;;;8.20;6.10;;;21.70;87.70;;;;;;5098483;28;20197;-70
2022/09/06 04:46:20;;;;;;;6.17;5.50;;;21.70;87.80;;;;;;5100913;28;20196;-70
2022/09/06 04:48:48;;;;;;;7.10;5.70;;;21.60;87.90;;;;;;5099074;28;20254;-70
2022/09/06 04:51:15;;;;;;;8.90;5.57;;;21.60;88.00;;;;;;5093673;28;20196;-70
2022/09/06 04:53:42;;;;;;;6.50;5.80;;;21.60;88.30;;;;;;5089499;28;20197;-70
2022/09/06 04:56:23;;;;;;;9.20;5.77;;;21.60;88.40;;;;;;5093753;28;20213;-70
2022/09/06 04:58:52;;;;;;;5.87;5.30;;;21.60;88.50;;;;;;5084699;28;20215;-69
2022/09/06 05:01:19;;;;;;;7.10;4.63;;;21.50;88.50;;;;;;5099482;28;20205;-70
2022/09/06 05:03:47;;;;;;;8.87;5.40;;;21.50;88.40;;;;;;5099378;28;20199;-70
2022/09/06 05:06:21;;;;;;;6.10;5.50;;;21.50;88.50;;;;;;5100826;28;20225;-70
2022/09/06 05:08:49;;;;;;;5.23;4.83;;;21.50;88.80;;;;;;5104857;28;20211;-72
2022/09/06 05:11:16;;;;;;;7.63;5.37;;;21.50;89.00;;;;;;5093139;28;20211;-72
2022/09/06 05:13:45;;;;;;;6.27;5.10;;;21.50;89.00;;;;;;5099535;28;20211;-71
2022/09/06 05:16:12;;;;;;;7.50;5.20;;;21.60;89.10;;;;;;5097940;28;20203;-71
2022/09/06 05:18:40;;;;;;;7.17;6.07;;;21.60;89.10;;;;;;5106246;27;20249;-72
2022/09/06 05:21:07;;;;;;;10.13;5.10;;;21.60;89.00;;;;;;5092824;28;20200;-72
2022/09/06 05:23:34;;;;;;;6.07;5.60;;;21.70;89.10;;;;;;5099864;28;20215;-72
2022/09/06 05:26:02;;;;;;;6.83;4.60;;;21.70;89.00;;;;;;5089754;28;20551;-72
2022/09/06 05:28:29;;;;;;;7.87;5.30;;;21.80;88.80;;;;;;5093593;28;20211;-72
2022/09/06 05:31:11;;;;;;;6.43;5.57;;;21.80;88.60;;;;;;5100030;28;20268;-72
2022/09/06 05:33:38;;;;;;;7.07;6.27;;;21.90;88.80;;;;;;5091785;28;20236;-72
2022/09/06 05:36:06;;;;;;;9.87;5.67;;;21.90;88.80;;;;;;5089811;28;20205;-72
2022/09/06 05:38:33;;;;;;;7.43;5.87;;;22.00;88.90;;;;;;5095761;28;20290;-71
2022/09/06 05:41:00;;;;;;;7.10;6.37;;;22.00;88.80;;;;;;5100613;28;20629;-71
2022/09/06 05:43:27;;;;;;;7.80;6.27;;;22.10;88.90;;;;;;5102035;28;20287;-72
2022/09/06 05:45:54;;;;;;;6.50;5.80;;;22.20;89.60;;;;;;5097510;28;20201;-72
2022/09/06 05:48:21;;;;;;;6.27;5.60;;;22.30;88.90;;;;;;5100819;28;20263;-71
2022/09/06 05:51:02;;;;;;;9.47;5.97;;;22.30;88.60;;;;;;5115204;28;20205;-72
2022/09/06 05:53:35;;;;;;;8.57;5.93;;;22.40;88.50;;;;;;5096067;28;20215;-71
2022/09/06 05:56:04;;;;;;;9.77;5.93;;;22.50;88.40;;;;;;5102321;28;20192;-71
2022/09/06 05:58:31;;;;;;;10.50;6.23;;;22.60;88.00;;;;;;5091615;28;20221;-71
2022/09/06 06:01:14;;;;;;;7.30;5.73;;;22.70;87.60;;;;;;5094847;28;20205;-71
2022/09/06 06:03:48;;;;;;;8.60;6.80;;;23.00;87.00;;;;;;5098186;28;20686;-71
2022/09/06 06:06:15;;;;;;;11.23;5.97;;;23.30;86.00;;;;;;5102321;28;20213;-70
2022/09/06 06:08:42;;;;;;;6.23;5.43;;;23.80;83.70;;;;;;5105561;28;20207;-71
2022/09/06 06:11:09;;;;;;;9.67;5.03;;;24.30;81.00;;;;;;5098848;28;20204;-71
2022/09/06 06:13:38;;;;;;;7.13;5.33;;;24.90;78.40;;;;;;5098781;28;20193;-71
2022/09/06 06:16:06;;;;;;;5.73;5.23;;;25.30;76.60;;;;;;5096381;28;20611;-71
2022/09/06 06:18:33;;;;;;;8.50;4.97;;;25.60;75.60;;;;;;5101616;27;20236;-71
2022/09/06 06:21:09;;;;;;;7.83;4.20;;;25.70;74.90;;;;;;5116436;27;20208;-72
2022/09/06 06:23:37;;;;;;;8.97;4.80;;;25.80;74.20;;;;;;5121533;27;20196;-72
2022/09/06 06:26:05;;;;;;;6.67;3.93;;;25.70;73.80;;;;;;5109001;27;20197;-71
2022/09/06 06:28:32;;;;;;;5.90;4.03;;;25.60;73.60;;;;;;5102967;28;20559;-71
2022/09/06 06:30:59;;;;;;;5.80;3.97;;;25.50;73.90;;;;;;5121299;27;20525;-72
2022/09/06 06:33:26;;;;;;;7.50;4.53;;;25.40;74.30;;;;;;5113484;27;20201;-70
2022/09/06 06:36:06;;;;;;;6.07;4.70;;;25.40;74.50;;;;;;5125704;27;20206;-71
2022/09/06 06:38:34;;;;;;;8.47;3.97;;;25.30;74.30;;;;;;5121354;27;20214;-70
2022/09/06 06:41:03;;;;;;;8.43;4.50;;;25.30;74.50;;;;;;5113058;27;20197;-70
2022/09/06 06:43:36;;;;;;;4.80;4.40;;;25.20;74.70;;;;;;5114549;27;20200;-70
2022/09/06 06:46:08;;;;;;;15.87;6.07;;;25.20;75.60;;;;;;5120463;27;20213;-70
2022/09/06 06:48:36;;;;;;;7.77;5.03;;;25.30;74.80;;;;;;5116376;27;20205;-70
2022/09/06 06:51:03;;;;;;;9.17;6.63;;;25.40;74.70;;;;;;5102286;27;20221;-71
2022/09/06 06:53:31;;;;;;;7.77;6.60;;;25.40;74.40;;;;;;5122681;27;20205;-70
2022/09/06 06:55:58;;;;;;;7.63;6.93;;;25.40;74.40;;;;;;5121749;27;20212;-70
2022/09/06 06:58:25;;;;;;;8.63;7.20;;;25.50;74.20;;;;;;5111138;27;20239;-70
2022/09/06 07:00:52;;;;;;;7.70;6.97;;;25.50;73.90;;;;;;5118718;27;20203;-70
2022/09/06 07:03:20;;;;;;;9.50;7.57;;;25.60;73.90;;;;;;5100883;28;20209;-70
2022/09/06 07:05:47;;;;;;;8.13;6.57;;;25.60;73.70;;;;;;5114835;27;20201;-69
2022/09/06 07:08:36;;;;;;;8.57;7.60;;;25.70;73.30;;;;;;5095362;27;20209;-70
2022/09/06 07:11:08;;;;;;;13.43;10.17;;;25.70;73.50;;;;;;5118960;27;20197;-71
2022/09/06 07:13:36;;;;;;;10.40;9.37;;;25.80;73.10;;;;;;5092753;27;20204;-70
2022/09/06 07:16:14;;;;;;;15.60;8.37;;;25.90;72.90;;;;;;5118861;27;20184;-70
2022/09/06 07:18:42;;;;;;;13.90;8.77;;;26.00;72.90;;;;;;5084190;28;20236;-70
2022/09/06 07:21:12;;;;;;;8.43;7.50;;;26.10;72.70;;;;;;5117548;27;20282;-70
2022/09/06 07:23:59;;;;;;;8.30;7.37;;;26.10;72.20;;;;;;5087712;27;20198;-70
2022/09/06 07:26:36;;;;;;;9.80;7.37;;;26.20;72.10;;;;;;5116275;27;20188;-71
2022/09/06 07:29:06;;;;;;;14.40;8.00;;;26.30;71.70;;;;;;5121207;27;20634;-70
2022/09/06 07:31:36;;;;;;;10.13;6.80;;;26.50;71.60;;;;;;5107103;27;20249;-70
2022/09/06 07:34:24;;;;;;;8.13;7.30;;;26.50;71.10;;;;;;5101293;28;20567;-70
2022/09/06 07:36:55;;;;;;;9.33;7.87;;;26.70;70.80;;;;;;5119101;27;20227;-70
2022/09/06 07:39:22;;;;;;;11.13;6.70;;;26.70;70.20;;;;;;5117686;27;20230;-70
2022/09/06 07:41:49;;;;;;;9.33;7.37;;;26.90;70.00;;;;;;5100057;27;20197;-70
2022/09/06 07:44:16;;;;;;;10.07;7.10;;;27.00;69.40;;;;;;5118945;27;20202;-70
2022/09/06 07:46:43;;;;;;;7.23;6.07;;;27.10;69.30;;;;;;5117383;27;20196;-70
2022/09/06 07:49:10;;;;;;;8.67;6.37;;;27.30;68.50;;;;;;5109421;27;20232;-71
2022/09/06 07:51:37;;;;;;;8.00;5.70;;;27.40;67.40;;;;;;5103530;28;20216;-70
2022/09/06 07:54:05;;;;;;;8.97;5.43;;;27.50;66.80;;;;;;5099231;27;20228;-70
2022/09/06 07:56:52;;;;;;;8.30;5.20;;;27.60;65.70;;;;;;5122518;27;20210;-70
2022/09/06 07:59:19;;;;;;;6.40;5.47;;;27.80;65.30;;;;;;5117536;27;20231;-70
2022/09/06 08:01:47;;;;;;;8.83;5.07;;;27.90;64.70;;;;;;5118047;27;20238;-70
2022/09/06 08:04:14;;;;;;;11.13;6.60;;;28.10;64.30;;;;;;5114734;27;20209;-71
2022/09/06 08:06:47;;;;;;;10.30;6.93;;;28.20;64.00;;;;;;5104625;27;20605;-70
2022/09/06 08:09:34;;;;;;;9.93;6.57;;;28.40;63.40;;;;;;5118467;27;20566;-70
2022/09/06 08:12:05;;;;;;;10.43;6.20;;;28.50;63.00;;;;;;5113306;27;20215;-70
2022/09/06 08:14:33;;;;;;;7.60;6.13;;;28.70;62.70;;;;;;5109592;27;20568;-70
2022/09/06 08:17:01;;;;;;;8.20;6.00;;;28.80;62.30;;;;;;5113891;27;20204;-70
2022/09/06 08:19:29;;;;;;;7.20;6.50;;;28.90;61.60;;;;;;5122857;27;20301;-70
2022/09/06 08:21:56;;;;;;;19.33;6.70;;;29.00;61.30;;;;;;5117502;27;20614;-70
2022/09/06 08:24:23;;;;;;;6.30;5.40;;;29.20;61.00;;;;;;5120995;27;20680;-70
2022/09/06 08:26:50;;;;;;;7.80;6.10;;;29.20;60.70;;;;;;5104515;28;20193;-70
2022/09/06 08:29:18;;;;;;;6.77;5.57;;;29.40;60.40;;;;;;5098810;27;20204;-70
2022/09/06 08:31:46;;;;;;;9.63;6.23;;;29.50;60.00;;;;;;5097616;27;20579;-71
2022/09/06 08:34:14;;;;;;;10.60;5.80;;;29.60;59.80;;;;;;5112871;27;20228;-70
2022/09/06 08:36:41;;;;;;;7.43;5.43;;;29.70;59.70;;;;;;5102576;27;20231;-70
2022/09/06 08:39:09;;;;;;;7.80;5.63;;;29.80;59.00;;;;;;5113156;27;20224;-70
2022/09/06 08:41:59;;;;;;;7.93;5.90;;;29.80;58.00;;;;;;5114477;27;20212;-71
2022/09/06 08:44:49;;;;;;;6.53;5.87;;;29.90;57.30;;;;;;5117929;27;20204;-70
2022/09/06 08:47:24;;;;;;;7.67;6.23;;;29.90;57.90;;;;;;5115757;27;20204;-70
2022/09/06 08:50:08;;;;;;;10.37;6.53;;;29.90;57.40;;;;;;5101507;28;20657;-70
2022/09/06 08:52:58;;;;;;;11.33;6.57;;;29.90;57.20;;;;;;5119275;27;20196;-70
2022/09/06 08:55:53;;;;;;;9.53;6.00;;;29.80;57.60;;;;;;5087067;28;20312;-70
2022/09/06 08:58:23;;;;;;;8.97;6.17;;;29.70;57.40;;;;;;5115713;27;20219;-70
2022/09/06 09:00:59;;;;;;;7.13;6.03;;;29.80;57.90;;;;;;5120683;27;20184;-70
2022/09/06 09:03:38;;;;;;;8.00;6.67;;;29.70;57.90;;;;;;5118914;27;20210;-70
2022/09/06 09:06:08;;;;;;;9.77;5.73;;;29.70;57.30;;;;;;5120016;27;20204;-70
2022/09/06 09:08:40;;;;;;;8.30;6.03;;;29.80;57.50;;;;;;5118775;27;20212;-70
2022/09/06 09:11:19;;;;;;;6.20;5.60;;;29.90;57.20;;;;;;5118024;27;20605;-70
2022/09/06 09:13:46;;;;;;;8.63;5.37;;;30.00;56.90;;;;;;5098381;28;20196;-70
2022/09/06 09:16:25;;;;;;;5.90;4.80;;;30.10;56.50;;;;;;5116160;27;20200;-71
2022/09/06 09:19:00;;;;;;;9.37;4.67;;;30.20;56.70;;;;;;5108344;28;20350;-70
2022/09/06 09:21:30;;;;;;;10.47;5.33;;;30.40;56.80;;;;;;5109396;28;20187;-71
2022/09/06 09:24:02;;;;;;;14.73;6.17;;;30.50;56.90;;;;;;5116014;28;20203;-71
2022/09/06 09:26:42;;;;;;;8.40;5.27;;;30.60;55.80;;;;;;5118747;28;20184;-71
2022/09/06 09:29:12;;;;;;;11.03;5.63;;;30.70;55.20;;;;;;5117162;28;20207;-70
2022/09/06 09:31:40;;;;;;;7.50;5.73;;;30.70;55.60;;;;;;5119438;28;20200;-71
2022/09/06 09:34:12;;;;;;;8.37;6.37;;;30.70;54.50;;;;;;5104923;27;20208;-71
2022/09/06 09:36:39;;;;;;;11.30;5.77;;;30.70;54.80;;;;;;5119915;27;20195;-72
2022/09/06 09:39:10;;;;;;;9.73;5.80;;;30.70;55.10;;;;;;5114941;27;20303;-71
2022/09/06 09:41:41;;;;;;;5.93;4.87;;;30.70;54.40;;;;;;5121842;27;20200;-72
2022/09/06 09:44:16;;;;;;;12.60;4.47;;;30.80;54.70;;;;;;5103197;27;20196;-71
2022/09/06 09:46:43;;;;;;;10.73;4.53;;;30.80;55.30;;;;;;5108202;28;20525;-71
2022/09/06 09:49:21;;;;;;;10.10;5.27;;;30.90;55.60;;;;;;5118663;27;20214;-71
2022/09/06 09:52:03;;;;;;;8.63;4.93;;;31.10;54.70;;;;;;5103374;27;20209;-71
2022/09/06 09:54:34;;;;;;;8.90;4.90;;;31.20;55.00;;;;;;5120589;27;20203;-71
2022/09/06 09:57:05;;;;;;;8.10;4.50;;;31.40;53.60;;;;;;5109044;27;20555;-71
2022/09/06 09:59:46;;;;;;;8.13;5.50;;;31.50;54.40;;;;;;5116920;27;20229;-71
2022/09/06 10:02:19;;;;;;;8.83;5.30;;;31.50;54.40;;;;;;5110620;27;20200;-70
2022/09/06 10:05:03;;;;;;;8.63;4.83;;;31.60;54.20;;;;;;5117302;27;20205;-70
2022/09/06 10:07:32;;;;;;;5.50;4.83;;;31.60;53.40;;;;;;5116754;27;20199;-70
2022/09/06 10:10:09;;;;;;;6.33;4.23;;;31.70;54.20;;;;;;5122412;27;20203;-71
2022/09/06 10:12:38;;;;;;;9.43;4.00;;;31.80;54.00;;;;;;5123166;27;20196;-70
2022/09/06 10:15:11;;;;;;;6.60;2.80;;;32.00;53.80;;;;;;5095826;27;20215;-70
2022/09/06 10:17:50;;;;;;;5.10;3.70;;;32.10;53.60;;;;;;5120398;27;20207;-70
2022/09/06 10:20:17;;;;;;;9.13;4.00;;;32.40;53.40;;;;;;5114268;27;20562;-71
2022/09/06 10:22:55;;;;;;;5.73;4.17;;;32.40;52.10;;;;;;5117696;27;20198;-71
2022/09/06 10:25:45;;;;;;;5.33;3.80;;;32.50;53.10;;;;;;5090163;28;20283;-70
2022/09/06 10:28:40;;;;;;;6.33;3.87;;;32.50;52.50;;;;;;5116059;27;20518;-70
2022/09/06 10:31:32;;;;;;;8.00;3.97;;;32.50;52.10;;;;;;5097985;28;20192;-71
2022/09/06 10:34:08;;;;;;;7.93;4.60;;;32.50;52.50;;;;;;5088279;28;20208;-72
2022/09/06 10:36:38;;;;;;;6.67;3.90;;;32.60;51.60;;;;;;5120512;27;20241;-72
2022/09/06 10:39:30;;;;;;;4.40;3.57;;;32.60;51.80;;;;;;5121570;27;20650;-70
2022/09/06 10:42:14;;;;;;;7.10;3.80;;;32.60;50.80;;;;;;5119363;27;20570;-71
2022/09/06 10:45:21;;;;;;;4.73;3.47;;;32.60;51.50;;;;;;5110475;27;20250;-71
2022/09/06 10:48:12;;;;;;;5.70;3.70;;;32.60;51.30;;;;;;5113113;27;20629;-71
2022/09/06 10:50:40;;;;;;;7.33;3.30;;;32.70;51.00;;;;;;5097479;27;20209;-70
2022/09/06 10:53:45;;;;;;;8.73;3.03;;;32.70;51.80;;;;;;5124879;27;20219;-71
2022/09/06 10:56:35;;;;;;;4.07;2.63;;;32.90;51.60;;;;;;5115845;27;20533;-72
2022/09/06 10:59:28;;;;;;;6.43;2.90;;;33.00;51.30;;;;;;5120856;27;20228;-72
2022/09/06 11:02:39;;;;;;;4.00;3.10;;;33.10;51.50;;;;;;5117639;27;20282;-71
2022/09/06 11:05:25;;;;;;;5.63;2.77;;;33.20;51.00;;;;;;4999305;28;20271;-71
2022/09/06 11:08:35;;;;;;;4.73;2.80;;;33.20;49.90;;;;;;4982627;28;20203;-71
2022/09/06 11:11:38;;;;;;;5.27;3.00;;;33.30;50.50;;;;;;5088904;27;20216;-71
2022/09/06 11:14:12;;;;;;;4.13;2.90;;;33.40;49.30;;;;;;5116740;27;20202;-72
2022/09/06 11:16:52;;;;;;;8.23;3.10;;;33.40;49.80;;;;;;5107248;27;20199;-71
2022/09/06 11:19:26;;;;;;;8.10;3.40;;;33.50;50.10;;;;;;5121529;27;20567;-71
2022/09/06 11:22:12;;;;;;;9.23;5.73;;;33.50;48.20;;;;;;5104378;27;20205;-71
2022/09/06 11:25:00;;;;;;;5.20;4.00;;;33.50;48.40;;;;;;5101208;28;20201;-71
2022/09/06 11:27:30;;;;;;;7.33;3.67;;;33.40;48.00;;;;;;5086075;27;20203;-71
2022/09/06 11:30:00;;;;;;;5.50;3.90;;;33.30;48.80;;;;;;5117024;27;20197;-71
2022/09/06 11:32:32;;;;;;;5.30;3.37;;;33.30;48.10;;;;;;5118963;27;20537;-71
2022/09/06 11:35:08;;;;;;;4.40;3.13;;;33.30;48.20;;;;;;5111501;27;20238;-72
2022/09/06 11:37:35;;;;;;;4.20;3.60;;;33.20;47.30;;;;;;5117042;27;20546;-72
2022/09/06 11:40:14;;;;;;;3.50;2.80;;;33.20;48.20;;;;;;5118718;27;20220;-72
2022/09/06 11:42:58;;;;;;;4.93;2.77;;;33.20;48.90;;;;;;5119525;27;20220;-71
2022/09/06 11:45:40;;;;;;;7.30;3.13;;;33.20;48.80;;;;;;5104324;28;20333;-71
2022/09/06 11:48:22;;;;;;;5.67;3.20;;;33.20;48.00;;;;;;5118735;27;20618;-71
2022/09/06 11:50:53;;;;;;;3.87;3.10;;;33.30;49.70;;;;;;5088739;27;20205;-70
2022/09/06 11:53:22;;;;;;;5.23;2.90;;;33.30;49.20;;;;;;5101432;27;20200;-71
2022/09/06 11:56:09;;;;;;;5.13;3.00;;;33.40;47.90;;;;;;5103485;28;20215;-71
2022/09/06 11:58:39;;;;;;;3.93;2.70;;;33.40;48.50;;;;;;5124148;27;20218;-71
2022/09/06 12:01:15;;;;;;;6.33;2.77;;;33.50;48.40;;;;;;5102241;27;20225;-71
2022/09/06 12:03:42;;;;;;;6.13;2.83;;;33.50;48.30;;;;;;5115021;27;20438;-71
2022/09/06 12:06:35;;;;;;;4.43;3.20;;;33.60;48.00;;;;;;5098721;27;20196;-71
2022/09/06 12:09:29;;;;;;;5.23;3.20;;;33.60;48.20;;;;;;5114182;27;20415;-72
2022/09/06 12:11:57;;;;;;;6.77;2.87;;;33.60;47.30;;;;;;5118837;27;20282;-73
2022/09/06 12:14:47;;;;;;;5.23;2.77;;;33.70;48.10;;;;;;5120719;27;20208;-70
2022/09/06 12:17:15;;;;;;;5.03;2.80;;;33.70;48.30;;;;;;5105996;27;20495;-70
2022/09/06 12:19:48;;;;;;;6.73;2.60;;;33.70;47.80;;;;;;5114785;27;20237;-71
2022/09/06 12:22:31;;;;;;;4.03;2.47;;;33.60;48.40;;;;;;5120578;27;20207;-71
2022/09/06 12:25:04;;;;;;;2.97;2.67;;;33.60;47.50;;;;;;5121993;27;20227;-71
2022/09/06 12:27:49;;;;;;;4.33;2.60;;;33.60;47.40;;;;;;5123209;27;20201;-71
2022/09/06 12:30:35;;;;;;;3.23;2.93;;;33.70;47.80;;;;;;5122243;27;20287;-71
2022/09/06 12:33:19;;;;;;;6.47;2.63;;;33.70;46.20;;;;;;5084965;28;20266;-72
2022/09/06 12:35:46;;;;;;;3.53;2.80;;;33.80;46.70;;;;;;5111949;27;20611;-71
2022/09/06 12:38:33;;;;;;;4.87;2.53;;;33.80;47.20;;;;;;5095430;27;20606;-71
2022/09/06 12:41:03;;;;;;;4.57;2.50;;;33.70;47.00;;;;;;5103954;28;20209;-71
2022/09/06 12:43:34;;;;;;;2.30;2.17;;;33.70;47.40;;;;;;5107941;27;20193;-71
2022/09/06 12:46:06;;;;;;;3.70;2.33;;;33.70;46.70;;;;;;5119479;27;20203;-71
2022/09/06 12:48:39;;;;;;;5.43;2.57;;;33.70;46.80;;;;;;5117978;27;20256;-72
2022/09/06 12:51:18;;;;;;;4.07;2.33;;;33.60;47.10;;;;;;5087338;27;20231;-70
2022/09/06 12:53:50;;;;;;;2.87;2.53;;;33.60;46.80;;;;;;5121168;27;20590;-70
2022/09/06 12:56:22;;;;;;;2.67;2.20;;;33.60;46.90;;;;;;5106496;28;20296;-73
2022/09/06 12:58:50;;;;;;;2.57;2.30;;;33.60;47.60;;;;;;5107951;27;20635;-71
2022/09/06 13:01:28;;;;;;;3.57;2.50;;;33.60;47.30;;;;;;5096768;27;20634;-71
2022/09/06 13:04:08;;;;;;;6.07;2.73;;;33.60;48.00;;;;;;5122341;27;20200;-72
2022/09/06 13:06:40;;;;;;;2.60;2.40;;;33.60;46.50;;;;;;5117419;27;20189;-73
2022/09/06 13:09:11;;;;;;;2.97;2.10;;;33.60;47.20;;;;;;5119846;27;20212;-71
2022/09/06 13:11:43;;;;;;;3.97;2.10;;;33.60;47.00;;;;;;5101620;27;20200;-72
2022/09/06 13:14:12;;;;;;;2.40;2.20;;;33.60;46.90;;;;;;5095272;27;20630;-71
2022/09/06 13:16:49;;;;;;;5.63;2.63;;;33.50;46.70;;;;;;5114297;28;20195;-71